Latest Weather Observations for Hamilton

IDV60801

Issued at 7:05 pm EDT Monday 26 January 2015 (issued every 30 minutes, with the page automatically refreshed every 10 minutes)

About weather observations | Map of weather stations | Latest weather observations for VIC | Other Formats
Station Details ID: 090173 Name: HAMILTON AIRPORT Lat: -37.65 Lon: 142.06 Height: 241.1 m
Data from the previous 72 hours. | See also: Recent months at Hamilton
Date/Time
EDT
Temp
°C
App
Temp
°C
Dew
Point
Rel
Hum
%
Delta-T
°C
Wind Press
QNH
hPa
Press
MSL
hPa
Rain
since 9 am
mm
Dir
 
Spd
km/h
Gust
km/h
Spd
kts
Gust
kts
26/07:00pm 14.7 9.0 6.5 58 4.0 SSE 26 35 14 19 1017.3 1016.6 0.0
26/06:30pm 15.2 10.3 7.0 58 4.1 SSE 22 30 12 16 1017.1 1016.4 0.0
26/06:00pm 15.7 10.3 6.4 54 4.6 S 24 32 13 17 1016.9 1016.2 0.0
26/05:30pm 15.5 10.7 5.7 52 4.7 S 20 28 11 15 1017.1 1016.4 0.0
26/05:00pm 15.7 9.9 6.4 54 4.6 SSW 26 33 14 18 1017.2 1016.5 0.0
26/04:30pm 16.1 10.9 7.1 55 4.5 SSW 24 32 13 17 1017.2 1016.5 0.0
26/04:00pm 17.0 12.3 6.2 49 5.3 S 20 32 11 17 1017.3 1016.6 0.0
26/03:30pm 16.8 12.2 5.7 48 5.4 S 19 26 10 14 1017.4 1016.7 0.0
26/03:00pm 16.9 12.1 5.8 48 5.4 SSE 20 28 11 15 1017.3 1016.6 0.0
26/02:30pm 16.9 11.9 6.4 50 5.2 S 22 33 12 18 1017.3 1016.6 0.0
26/02:00pm 16.8 11.6 5.7 48 5.4 S 22 30 12 16 1017.5 1016.8 0.0
26/01:30pm 17.5 12.1 6.4 48 5.5 SSW 24 32 13 17 1017.6 1016.9 0.0
26/01:00pm 17.4 12.2 5.4 45 5.9 SSW 22 33 12 18 1017.8 1017.1 0.0
26/12:30pm 16.6 11.7 4.9 46 5.6 S 20 30 11 16 1017.9 1017.3 0.0
26/12:00pm 16.8 12.4 4.5 44 5.9 SSE 17 28 9 15 1017.8 1017.1 0.0
26/11:30am 15.9 11.7 5.8 51 4.9 S 17 22 9 12 1018.2 1017.6 0.0
26/11:00am 14.8 10.2 5.6 54 4.4 S 19 26 10 14 1018.4 1017.8 0.0
26/10:30am 14.7 11.0 6.3 57 4.1 S 15 24 8 13 1018.5 1017.9 0.0
26/10:00am 14.2 11.0 7.0 62 3.5 SSW 13 19 7 10 1018.3 1017.7 0.0
26/09:30am 13.4 9.8 6.7 64 3.3 SW 15 20 8 11 1018.1 1017.5 0.0
26/09:00am 12.5 9.6 8.2 75 2.1 SW 13 19 7 10 1018.1 1017.5 0.0
26/08:30am 11.1 8.9 9.5 90 0.8 WSW 11 13 6 7 1017.8 1017.1 0.0
26/08:00am 9.4 7.4 8.8 96 0.3 WSW 9 11 5 6 1017.5 1016.8 0.0
26/07:30am 7.8 5.8 7.2 96 0.3 W 7 9 4 5 1017.0 1016.3 0.0
26/07:00am 6.6 4.9 5.9 95 0.3 W 4 6 2 3 1016.7 1016.0 0.0
26/06:30am 6.4 4.3 5.7 95 0.3 W 6 7 3 4 1016.4 1015.7 0.0
26/06:00am 7.2 5.6 6.3 94 0.4 W 4 6 2 3 1015.9 1015.2 0.0
26/05:30am 7.3 5.3 6.4 94 0.4 W 6 6 3 3 1015.6 1014.9 0.0
26/05:00am 7.2 5.2 6.1 93 0.5 W 6 7 3 4 1015.4 1014.7 0.0
26/04:30am 7.4 4.8 6.2 92 0.6 WSW 9 11 5 6 1015.4 1014.7 0.0
26/04:00am 8.0 5.5 6.6 91 0.7 W 9 11 5 6 1015.1 1014.5 0.0
26/03:30am 8.2 6.1 6.8 91 0.7 W 7 9 4 5 1015.1 1014.5 0.0
26/03:00am 8.0 5.9 6.5 90 0.7 W 7 9 4 5 1014.9 1014.3 0.0
26/02:30am 8.4 6.0 6.9 90 0.7 WNW 9 9 5 5 1014.9 1014.3 0.0
26/02:00am 8.6 6.8 7.1 90 0.7 NW 6 6 3 3 1014.9 1014.3 0.0
26/01:30am 8.2 6.0 6.3 88 0.9 NW 7 9 4 5 1014.9 1014.3 0.0
26/01:00am 9.5 7.2 7.4 87 1.0 SW 9 11 5 6 1014.7 1014.1 0.0
26/12:30am 9.5 6.7 6.9 84 1.2 SW 11 13 6 7 1014.7 1014.1 0.0
26/12:00am 10.9 8.6 7.6 80 1.6 WSW 9 13 5 7 1014.7 1014.1 0.0
 
Date/Time
EDT
Temp
°C
App
Temp
°C
Dew
Point
Rel
Hum
%
Delta-T
°C
Wind Press
QNH
hPa
Press
MSL
hPa
Rain
since 9 am
mm
Dir
 
Spd
km/h
Gust
km/h
Spd
kts
Gust
kts
25/11:30pm 10.8 8.1 7.5 80 1.6 SW 11 13 6 7 1014.7 1014.1 0.0
25/11:00pm 9.9 6.8 5.5 74 2.0 WSW 11 13 6 7 1014.6 1014.0 0.0
25/10:30pm 11.4 8.9 6.5 72 2.3 SW 9 13 5 7 1014.5 1013.9 0.0
25/10:00pm 12.1 8.5 6.6 69 2.6 SW 15 20 8 11 1014.4 1013.8 0.0
25/09:30pm 11.3 7.5 6.0 70 2.5 SW 15 19 8 10 1014.0 1013.3 0.0
25/09:00pm 12.8 8.1 6.2 64 3.2 SW 20 28 11 15 1013.7 1013.0 0.0
25/08:30pm 13.0 8.4 5.7 61 3.5 SW 19 26 10 14 1013.5 1012.8 0.0
25/08:00pm 13.2 8.9 6.8 65 3.1 WSW 19 24 10 13 1013.3 1012.6 0.0
25/07:30pm 13.6 6.4 6.0 60 3.7 SW 33 43 18 23 1013.1 1012.4 0.0
25/07:00pm 14.8 7.6 4.8 51 4.7 WSW 32 43 17 23 1012.5 1011.8 0.0
25/06:30pm 16.2 9.7 6.3 52 4.9 SW 30 37 16 20 1012.3 1011.6 0.0
25/06:00pm 16.4 8.9 7.9 57 4.3 SW 37 48 20 26 1012.1 1011.4 0.0
25/05:59pm 16.5 9.2 7.4 55 4.6 SW 35 46 19 25 1012.1 1011.4 0.0
25/05:30pm 18.1 11.3 5.0 42 6.4 WSW 30 39 16 21 1011.7 1011.0 0.0
25/05:00pm 18.3 11.2 5.5 43 6.3 WSW 32 44 17 24 1011.6 1010.9 0.0
25/04:35pm 17.4 10.3 5.7 46 5.8 WSW 32 50 17 27 1011.4 1010.7 0.0
25/04:30pm 18.6 11.3 5.5 42 6.5 WSW 33 50 18 27 1011.3 1010.6 0.0
25/04:27pm 19.2 12.1 5.6 41 6.8 WSW 32 50 17 27 1011.1 1010.4 0.0
25/04:00pm 17.0 10.5 4.7 44 5.9 SW 28 41 15 22 1011.2 1010.5 0.0
25/03:54pm 18.5 11.9 6.0 44 6.2 WSW 30 41 16 22 1011.2 1010.5 0.0
25/03:39pm 17.0 9.5 4.7 44 5.9 WSW 33 50 18 27 1011.2 1010.5 0.0
25/03:30pm 18.6 10.6 5.5 42 6.5 SW 37 50 20 27 1011.2 1010.5 0.0
25/03:09pm 17.5 9.8 5.4 45 5.9 WSW 35 57 19 31 1011.3 1010.6 0.0
25/03:00pm 16.9 8.7 4.6 44 5.9 WSW 37 50 20 27 1011.4 1010.7 0.0
25/02:30pm 16.9 8.0 7.8 55 4.6 WSW 44 56 24 30 1011.5 1010.8 0.0
25/02:22pm 16.9 9.8 8.1 56 4.5 WSW 35 54 19 29 1011.1 1010.4 0.0
25/02:00pm 16.5 10.4 6.6 52 4.9 W 28 39 15 21 1011.2 1010.5 0.0
25/01:30pm 16.7 9.8 7.1 53 4.8 WSW 33 43 18 23 1011.3 1010.6 0.0
25/01:00pm 14.9 7.6 7.2 60 3.8 WSW 35 48 19 26 1011.2 1010.5 0.0
25/12:55pm 16.1 9.5 6.0 51 4.9 WSW 30 48 16 26 1010.9 1010.2 0.0
25/12:30pm 16.1 9.6 6.3 52 4.8 W 30 37 16 20 1010.7 1010.1 0.0
25/12:27pm 16.3 9.4 6.4 52 4.9 WSW 32 43 17 23 1010.7 1010.1 0.0
25/12:18pm 15.3 8.3 5.8 53 4.6 W 32 43 17 23 1010.7 1010.1 0.0
25/12:00pm 16.4 10.7 6.8 53 4.8 W 26 33 14 18 1010.6 1010.0 0.0
25/11:30am 15.2 8.1 5.7 53 4.6 WSW 32 50 17 27 1010.6 1010.0 0.0
25/11:00am 16.3 9.6 7.3 55 4.5 W 32 43 17 23 1010.4 1009.7 0.0
25/10:30am 15.1 8.0 5.6 53 4.6 W 32 43 17 23 1010.1 1009.4 0.0
25/10:00am 13.9 7.6 7.4 65 3.2 WSW 30 39 16 21 1010.0 1009.3 0.0
25/09:30am 14.1 8.2 7.6 65 3.2 WSW 28 35 15 19 1009.7 1009.0 0.0
25/09:00am 12.8 6.5 7.3 69 2.7 W 30 35 16 19 1009.2 1008.5 2.4
25/08:30am 12.1 8.1 9.1 82 1.5 W 20 28 11 15 1008.8 1008.1 2.4
25/08:00am 11.2 8.2 9.1 87 1.1 W 15 20 8 11 1008.6 1007.9 2.4
25/07:30am 10.3 7.2 8.9 91 0.7 W 15 19 8 10 1008.0 1007.3 2.4
25/07:00am 9.7 6.5 8.5 92 0.6 W 15 19 8 10 1007.7 1007.0 2.4
25/06:30am 9.9 6.8 8.8 93 0.5 W 15 19 8 10 1007.4 1006.7 2.4
25/06:00am 10.2 7.6 9.3 94 0.5 W 13 20 7 11 1007.2 1006.5 2.4
25/05:30am 10.5 7.2 9.7 95 0.4 W 17 20 9 11 1006.9 1006.1 2.4
25/05:00am 10.8 8.1 10.2 96 0.3 W 15 22 8 12 1006.3 1005.6 2.4
25/04:47am 10.9 8.2 10.3 96 0.3 W 15 19 8 10 1006.3 1005.6 2.4
25/04:30am 11.4 7.9 10.8 96 0.3 WSW 20 30 11 16 1006.4 1005.7 2.4
25/04:13am 11.7 8.9 11.2 97 0.3 W 17 22 9 12 1006.6 1005.8 2.4
25/04:00am 11.4 8.4 10.8 96 0.3 WSW 17 22 9 12 1006.3 1005.6 2.4
25/03:55am 11.4 8.4 10.8 96 0.3 WSW 17 19 9 10 1006.3 1005.6 2.4
25/03:41am 11.6 8.3 11.0 96 0.3 WSW 19 24 10 13 1005.9 1005.2 2.4
25/03:30am 12.2 9.1 11.6 96 0.3 W 19 22 10 12 1006.0 1005.3 2.4
25/03:27am 12.2 9.1 11.6 96 0.3 W 19 24 10 13 1006.0 1005.3 2.2
25/03:14am 12.2 9.9 11.6 96 0.3 W 15 20 8 11 1006.2 1005.5 2.0
25/03:00am 12.1 9.3 11.3 95 0.4 W 17 22 9 12 1006.2 1005.5 2.0
25/02:44am 12.1 8.7 11.3 95 0.4 W 20 28 11 15 1006.1 1005.4 2.0
25/02:34am 12.2 7.8 11.6 96 0.3 WSW 26 35 14 19 1006.0 1005.3 2.0
25/02:30am 12.1 7.6 11.3 95 0.4 W 26 35 14 19 1005.9 1005.2 2.0
25/02:18am 12.7 9.6 12.1 96 0.3 W 20 32 11 17 1005.8 1005.1 1.6
25/02:00am 12.7 9.6 12.1 96 0.3 W 20 28 11 15 1005.7 1005.0 1.2
25/01:43am 12.7 9.7 11.9 95 0.4 W 19 24 10 13 1005.9 1005.2 1.0
25/01:30am 12.7 10.1 11.9 95 0.4 W 17 20 9 11 1005.7 1005.0 1.0
25/01:14am 12.6 9.4 11.8 95 0.4 W 20 30 11 16 1005.6 1004.9 1.0
25/01:10am 12.6 9.4 11.8 95 0.4 W 20 30 11 16 1005.6 1004.9 1.0
25/01:00am 12.6 7.8 11.8 95 0.4 WSW 28 41 15 22 1005.5 1004.8 0.6
25/12:51am 13.3 9.8 12.2 93 0.6 W 22 43 12 23 1005.5 1004.8 0.4
25/12:30am 14.0 11.2 13.1 94 0.5 W 20 28 11 15 1005.5 1004.8 0.0
25/12:26am 14.0 11.2 13.1 94 0.5 W 20 28 11 15 1005.6 1004.9 0.0
25/12:11am 14.2 11.6 13.1 93 0.6 W 19 32 10 17 1005.5 1004.8 0.0
25/12:08am 14.2 11.9 13.1 93 0.6 W 17 32 9 17 1005.5 1004.8 0.0
25/12:00am 14.2 11.9 13.1 93 0.6 WNW 17 22 9 12 1005.4 1004.7 0.0
 
Date/Time
EDT
Temp
°C
App
Temp
°C
Dew
Point
Rel
Hum
%
Delta-T
°C
Wind Press
QNH
hPa
Press
MSL
hPa
Rain
since 9 am
mm
Dir
 
Spd
km/h
Gust
km/h
Spd
kts
Gust
kts
24/11:50pm 14.2 11.8 12.8 91 0.8 WNW 17 20 9 11 1005.2 1004.5 0.0
24/11:32pm 14.9 8.6 12.2 84 1.5 W 37 56 20 30 1005.7 1005.0 0.0
24/11:30pm 15.1 8.7 11.9 81 1.8 WNW 37 56 20 30 1005.6 1004.9 0.0
24/11:26pm 15.9 10.1 10.9 72 2.7 WNW 32 54 17 29 1005.2 1004.5 0.0
24/11:00pm 17.8 13.6 9.9 60 4.2 WNW 22 33 12 18 1005.2 1004.5 0.0
24/10:30pm 18.0 13.8 9.9 59 4.3 WNW 22 30 12 16 1005.1 1004.4 0.0
24/10:00pm 18.5 13.4 9.3 55 4.9 W 26 39 14 21 1004.8 1004.1 0.0
24/09:30pm 18.5 14.4 8.7 53 5.1 WNW 20 30 11 16 1004.5 1003.8 0.0
24/09:00pm 19.0 14.1 8.6 51 5.5 W 24 33 13 18 1004.2 1003.5 0.0
24/08:30pm 19.9 14.0 8.9 49 5.8 W 30 41 16 22 1003.8 1003.1 0.0
24/08:00pm 21.1 14.6 8.0 43 6.9 W 32 43 17 23 1003.6 1002.9 0.0
24/07:30pm 21.9 15.8 8.1 41 7.3 W 30 39 16 21 1003.3 1002.5 0.0
24/07:00pm 22.9 16.4 8.2 39 7.9 W 32 44 17 24 1003.2 1002.4 0.0
24/06:49pm 23.1 17.1 8.8 40 7.7 W 30 48 16 26 1003.2 1002.4 0.0
24/06:30pm 23.8 18.0 9.4 40 7.9 W 30 44 16 24 1003.0 1002.2 0.0
24/06:00pm 24.4 18.3 8.4 36 8.7 WNW 30 48 16 26 1003.0 1002.2 0.0
24/05:30pm 24.6 19.1 9.0 37 8.5 WNW 28 39 15 21 1003.0 1002.2 0.0
24/05:03pm 24.3 18.2 9.8 40 8.0 WNW 32 50 17 27 1003.3 1002.5 0.0
24/05:00pm 24.4 18.7 9.9 40 8.1 WNW 30 43 16 23 1003.3 1002.5 0.0
24/04:30pm 24.4 19.2 10.3 41 7.9 WNW 28 52 15 28 1003.6 1002.9 0.0
24/04:25pm 24.6 19.4 10.1 40 8.1 WNW 28 52 15 28 1003.5 1002.8 0.0
24/04:00pm 25.1 19.9 10.2 39 8.4 WNW 28 43 15 23 1003.7 1003.0 0.0
24/03:30pm 24.9 19.9 9.6 38 8.5 W 26 41 14 22 1003.8 1003.1 0.0
24/03:00pm 24.7 19.5 10.2 40 8.1 WNW 28 37 15 20 1004.1 1003.4 0.0
24/02:30pm 24.4 19.0 9.6 39 8.2 WNW 28 41 15 22 1004.4 1003.7 0.0
24/02:00pm 23.3 18.4 8.6 39 8.0 WNW 24 35 13 19 1004.8 1004.1 0.0
24/01:30pm 22.4 17.6 8.9 42 7.3 WNW 24 33 13 18 1005.3 1004.6 0.0
24/01:00pm 21.4 17.3 8.7 44 6.8 WNW 20 30 11 16 1005.6 1004.9 0.0
24/12:30pm 20.4 16.5 8.7 47 6.2 W 19 24 10 13 1005.9 1005.2 0.0
24/12:00pm 19.3 16.3 9.2 52 5.4 WNW 15 28 8 15 1006.3 1005.6 0.0
24/11:30am 18.7 15.4 9.5 55 4.9 W 17 28 9 15 1006.8 1006.0 0.0
24/11:00am 17.5 13.3 8.4 55 4.7 NW 20 32 11 17 1006.8 1006.0 0.0
24/10:30am 16.1 12.0 8.6 61 3.9 W 20 26 11 14 1007.3 1006.6 0.0
24/10:00am 16.3 13.1 9.9 66 3.4 W 17 22 9 12 1007.4 1006.7 0.0
24/09:30am 15.7 13.0 10.2 70 2.9 W 15 20 8 11 1007.3 1006.6 0.0
24/09:00am 14.4 13.5 13.8 96 0.3 W 11 15 6 8 1007.4 1006.7 0.0
24/08:30am 12.8 11.5 12.6 99 0.1 WSW 11 13 6 7 1007.4 1006.7 0.0
24/08:00am 11.6 10.3 11.4 99 0.1 W 9 13 5 7 1007.2 1006.5 0.0
24/07:36am 10.8 8.9 10.6 99 0.1 WSW 11 13 6 7 1007.0 1006.2 0.0
24/07:30am 10.8 8.9 10.6 99 0.1 W 11 13 6 7 1007.0 1006.2 0.0
24/07:27am 10.7 8.8 10.5 99 0.1 W 11 13 6 7 1007.0 1006.2 0.0
24/07:00am 9.9 7.8 9.8 99 0.1 WSW 11 13 6 7 1007.0 1006.2 0.0
24/06:30am 9.0 6.2 8.7 98 0.1 WSW 13 17 7 9 1006.8 1006.0 0.0
24/06:11am 8.3 6.5 7.9 97 0.2 WSW 7 15 4 8 1006.8 1006.0 0.0
24/06:00am 8.8 8.4 8.4 97 0.2 CALM 0 0 0 0 1006.7 1005.9 0.0
24/05:38am 9.7 9.5 9.2 97 0.3 CALM 0 0 0 0 1006.6 1005.8 0.0
24/05:36am 9.8 9.7 9.3 97 0.3 CALM 0 0 0 0 1006.6 1005.8 0.0
24/05:30am 10.0 9.9 9.5 97 0.3 CALM 0 0 0 0 1006.6 1005.8 0.0
24/05:08am 10.2 10.2 9.7 97 0.3 CALM 0 0 0 0 1006.4 1005.7 0.0
24/05:00am 10.6 10.7 10.1 97 0.3 CALM 0 0 0 0 1006.4 1005.7 0.0
24/04:30am 10.5 9.4 9.9 96 0.3 S 6 6 3 3 1006.4 1005.7 0.0
24/04:00am 9.7 8.1 8.8 94 0.4 S 7 9 4 5 1006.6 1005.8 0.0
24/03:30am 10.9 9.2 9.8 93 0.6 SE 9 11 5 6 1006.8 1006.0 0.0
24/03:00am 10.9 9.2 9.7 92 0.6 SSE 9 9 5 5 1007.2 1006.5 0.0
24/02:30am 11.0 9.2 9.6 91 0.7 SE 9 11 5 6 1007.3 1006.6 0.0
24/02:00am 11.6 9.9 9.9 89 0.9 SE 9 11 5 6 1007.9 1007.2 0.0
24/01:30am 11.9 10.2 10.0 88 1.0 SSE 9 9 5 5 1008.1 1007.4 0.0
24/01:00am 11.9 10.2 9.8 87 1.1 SSE 9 11 5 6 1008.3 1007.6 0.0
24/12:30am 12.2 10.5 9.8 85 1.2 SE 9 11 5 6 1008.4 1007.7 0.0
24/12:00am 13.2 11.2 10.0 81 1.7 SE 11 15 6 8 1008.7 1008.0 0.0
 
Date/Time
EDT
Temp
°C
App
Temp
°C
Dew
Point
Rel
Hum
%
Delta-T
°C
Wind Press
QNH
hPa
Press
MSL
hPa
Rain
since 9 am
mm
Dir
 
Spd
km/h
Gust
km/h
Spd
kts
Gust
kts
23/11:30pm 14.3 11.6 10.5 78 2.0 SE 15 20 8 11 1008.9 1008.2 0.0
23/11:00pm 14.8 12.2 10.8 77 2.1 SE 15 19 8 10 1009.2 1008.5 0.0
23/10:30pm 15.0 11.7 11.0 77 2.2 SE 19 24 10 13 1009.2 1008.5 0.0
23/10:00pm 15.3 12.1 11.3 77 2.2 SE 19 24 10 13 1009.2 1008.5 0.0
23/09:30pm 15.0 12.2 11.2 78 2.1 SSE 17 22 9 12 1008.8 1008.1 0.0
23/09:00pm 15.1 11.5 10.7 75 2.4 SSE 20 28 11 15 1008.6 1007.9 0.0
23/08:30pm 16.2 12.6 10.7 70 3.0 SSE 20 28 11 15 1008.4 1007.7 0.0
23/08:00pm 17.4 12.8 11.2 67 3.4 S 26 30 14 16 1008.4 1007.7 0.0
23/07:30pm 17.5 13.0 11.5 68 3.3 S 26 33 14 18 1008.2 1007.5 0.0

Other Formats:

Comma delimited format used in spreadsheet applications
http://www.bom.gov.au/fwo/IDV60801/IDV60801.94829.axf

JavaScript Object Notation format (JSON) in row-major order
http://www.bom.gov.au/fwo/IDV60801/IDV60801.94829.json